sensor_id;sensor_type;location;lat;lon;timestamp;pressure;altitude;pressure_sealevel;temperature;humidity
36254;BME280;22291;52.250;21.228;2023-03-22T00:01:22;100285.49;;;0.64;85.77
36254;BME280;22291;52.250;21.228;2023-03-22T00:03:49;100285.18;;;0.61;85.76
36254;BME280;22291;52.250;21.228;2023-03-22T00:06:18;100286.19;;;0.57;85.62
36254;BME280;22291;52.250;21.228;2023-03-22T00:08:49;100282.67;;;0.54;85.72
36254;BME280;22291;52.250;21.228;2023-03-22T00:11:20;100283.45;;;0.52;85.79
36254;BME280;22291;52.250;21.228;2023-03-22T00:13:51;100281.56;;;0.50;86.06
36254;BME280;22291;52.250;21.228;2023-03-22T00:16:20;100277.52;;;0.47;86.15
36254;BME280;22291;52.250;21.228;2023-03-22T00:18:47;100270.84;;;0.45;85.99
36254;BME280;22291;52.250;21.228;2023-03-22T00:21:16;100270.78;;;0.42;85.69
36254;BME280;22291;52.250;21.228;2023-03-22T00:23:44;100269.66;;;0.38;85.89
36254;BME280;22291;52.250;21.228;2023-03-22T00:26:12;100262.72;;;0.37;86.43
36254;BME280;22291;52.250;21.228;2023-03-22T00:28:41;100261.36;;;0.34;86.06
36254;BME280;22291;52.250;21.228;2023-03-22T00:31:08;100258.61;;;0.29;85.89
36254;BME280;22291;52.250;21.228;2023-03-22T00:33:36;100263.08;;;0.26;86.01
36254;BME280;22291;52.250;21.228;2023-03-22T00:36:07;100254.78;;;0.23;85.90
36254;BME280;22291;52.250;21.228;2023-03-22T00:38:37;100258.47;;;0.22;86.14
36254;BME280;22291;52.250;21.228;2023-03-22T00:41:18;100259.78;;;0.19;86.02
36254;BME280;22291;52.250;21.228;2023-03-22T00:43:48;100250.89;;;0.13;85.66
36254;BME280;22291;52.250;21.228;2023-03-22T00:46:18;100252.66;;;0.08;85.53
36254;BME280;22291;52.250;21.228;2023-03-22T00:48:46;100255.80;;;0.05;85.84
36254;BME280;22291;52.250;21.228;2023-03-22T00:51:15;100248.59;;;0.03;85.74
36254;BME280;22291;52.250;21.228;2023-03-22T00:53:42;100251.45;;;-0.02;85.75
36254;BME280;22291;52.250;21.228;2023-03-22T00:56:11;100254.84;;;-0.04;85.85
36254;BME280;22291;52.250;21.228;2023-03-22T00:58:41;100241.52;;;-0.06;85.83
36254;BME280;22291;52.250;21.228;2023-03-22T01:01:09;100236.68;;;-0.09;85.88
36254;BME280;22291;52.250;21.228;2023-03-22T01:03:39;100244.13;;;-0.09;86.55
36254;BME280;22291;52.250;21.228;2023-03-22T01:06:07;100243.66;;;-0.06;87.75
36254;BME280;22291;52.250;21.228;2023-03-22T01:08:36;100246.64;;;-0.02;87.67
36254;BME280;22291;52.250;21.228;2023-03-22T01:11:06;100241.05;;;-0.03;87.51
36254;BME280;22291;52.250;21.228;2023-03-22T01:13:35;100242.62;;;-0.05;87.03
36254;BME280;22291;52.250;21.228;2023-03-22T01:16:05;100242.56;;;-0.07;86.87
36254;BME280;22291;52.250;21.228;2023-03-22T01:18:34;100247.61;;;-0.08;86.88
36254;BME280;22291;52.250;21.228;2023-03-22T01:21:02;100241.14;;;-0.12;86.93
36254;BME280;22291;52.250;21.228;2023-03-22T01:23:28;100240.34;;;-0.13;87.00
36254;BME280;22291;52.250;21.228;2023-03-22T01:25:57;100235.56;;;-0.13;87.11
36254;BME280;22291;52.250;21.228;2023-03-22T01:28:24;100230.74;;;-0.14;87.24
36254;BME280;22291;52.250;21.228;2023-03-22T01:30:50;100235.80;;;-0.15;86.96
36254;BME280;22291;52.250;21.228;2023-03-22T01:33:17;100234.94;;;-0.18;86.82
36254;BME280;22291;52.250;21.228;2023-03-22T01:35:44;100235.14;;;-0.22;86.47
36254;BME280;22291;52.250;21.228;2023-03-22T01:38:10;100228.14;;;-0.26;86.47
36254;BME280;22291;52.250;21.228;2023-03-22T01:40:38;100231.56;;;-0.28;86.28
36254;BME280;22291;52.250;21.228;2023-03-22T01:43:10;100225.92;;;-0.31;86.66
36254;BME280;22291;52.250;21.228;2023-03-22T01:45:45;100226.69;;;-0.33;86.52
36254;BME280;22291;52.250;21.228;2023-03-22T01:51:15;100219.66;;;-0.40;86.21
36254;BME280;22291;52.250;21.228;2023-03-22T01:53:51;100213.77;;;-0.42;86.25
36254;BME280;22291;52.250;21.228;2023-03-22T01:56:33;100212.68;;;-0.43;86.57
36254;BME280;22291;52.250;21.228;2023-03-22T01:59:04;100217.20;;;-0.44;86.57
36254;BME280;22291;52.250;21.228;2023-03-22T02:01:33;100206.51;;;-0.46;86.76
36254;BME280;22291;52.250;21.228;2023-03-22T02:04:05;100209.40;;;-0.48;86.59
36254;BME280;22291;52.250;21.228;2023-03-22T02:06:38;100205.94;;;-0.48;87.01
36254;BME280;22291;52.250;21.228;2023-03-22T02:09:08;100202.19;;;-0.50;86.84
36254;BME280;22291;52.250;21.228;2023-03-22T02:11:41;100199.53;;;-0.50;86.95
36254;BME280;22291;52.250;21.228;2023-03-22T02:23:13;100197.20;;;-0.46;88.08
36254;BME280;22291;52.250;21.228;2023-03-22T02:40:49;100197.03;;;-0.42;88.66
36254;BME280;22291;52.250;21.228;2023-03-22T02:46:33;100196.20;;;-0.43;88.52
36254;BME280;22291;52.250;21.228;2023-03-22T02:49:10;100192.22;;;-0.43;88.61
36254;BME280;22291;52.250;21.228;2023-03-22T02:51:51;100186.91;;;-0.43;88.45
36254;BME280;22291;52.250;21.228;2023-03-22T02:54:22;100184.25;;;-0.43;88.25
36254;BME280;22291;52.250;21.228;2023-03-22T02:57:12;100180.26;;;-0.43;88.67
36254;BME280;22291;52.250;21.228;2023-03-22T02:59:43;100182.68;;;-0.41;88.71
36254;BME280;22291;52.250;21.228;2023-03-22T03:02:13;100178.42;;;-0.42;88.64
36254;BME280;22291;52.250;21.228;2023-03-22T03:04:46;100171.81;;;-0.40;88.80
36254;BME280;22291;52.250;21.228;2023-03-22T03:07:21;100173.97;;;-0.39;88.68
36254;BME280;22291;52.250;21.228;2023-03-22T03:09:51;100177.45;;;-0.36;88.79
36254;BME280;22291;52.250;21.228;2023-03-22T03:12:20;100177.45;;;-0.36;88.88
36254;BME280;22291;52.250;21.228;2023-03-22T03:14:50;100174.56;;;-0.34;89.04
36254;BME280;22291;52.250;21.228;2023-03-22T03:17:29;100171.64;;;-0.35;88.86
36254;BME280;22291;52.250;21.228;2023-03-22T03:26:03;100173.00;;;-0.33;89.28
36254;BME280;22291;52.250;21.228;2023-03-22T03:28:57;100178.61;;;-0.32;89.47
36254;BME280;22291;52.250;21.228;2023-03-22T03:31:47;100174.88;;;-0.31;89.52
36254;BME280;22291;52.250;21.228;2023-03-22T03:35:02;100172.52;;;-0.30;89.58
36254;BME280;22291;52.250;21.228;2023-03-22T03:37:51;100163.45;;;-0.31;89.43
36254;BME280;22291;52.250;21.228;2023-03-22T03:40:29;100160.00;;;-0.32;89.52
36254;BME280;22291;52.250;21.228;2023-03-22T03:43:01;100158.14;;;-0.31;89.75
36254;BME280;22291;52.250;21.228;2023-03-22T03:45:30;100158.67;;;-0.32;89.83
36254;BME280;22291;52.250;21.228;2023-03-22T03:48:00;100158.14;;;-0.31;89.98
36254;BME280;22291;52.250;21.228;2023-03-22T03:50:30;100165.08;;;-0.30;89.95
36254;BME280;22291;52.250;21.228;2023-03-22T03:52:58;100165.58;;;-0.31;89.79
36254;BME280;22291;52.250;21.228;2023-03-22T03:55:26;100165.08;;;-0.30;89.86
36254;BME280;22291;52.250;21.228;2023-03-22T03:57:55;100165.87;;;-0.30;89.83
36254;BME280;22291;52.250;21.228;2023-03-22T04:00:21;100157.61;;;-0.31;90.23
36254;BME280;22291;52.250;21.228;2023-03-22T04:02:49;100159.53;;;-0.29;90.49
36254;BME280;22291;52.250;21.228;2023-03-22T04:05:16;100160.86;;;-0.29;90.62
36254;BME280;22291;52.250;21.228;2023-03-22T04:07:43;100163.78;;;-0.28;90.76
36254;BME280;22291;52.250;21.228;2023-03-22T04:10:10;100160.09;;;-0.27;90.77
36254;BME280;22291;52.250;21.228;2023-03-22T04:12:36;100164.88;;;-0.26;90.94
36254;BME280;22291;52.250;21.228;2023-03-22T04:15:06;100166.49;;;-0.25;91.03
36254;BME280;22291;52.250;21.228;2023-03-22T04:17:33;100167.59;;;-0.24;91.03
36254;BME280;22291;52.250;21.228;2023-03-22T04:19:59;100168.39;;;-0.23;91.13
36254;BME280;22291;52.250;21.228;2023-03-22T04:22:27;100156.13;;;-0.24;91.15
36254;BME280;22291;52.250;21.228;2023-03-22T04:24:56;100160.35;;;-0.26;91.11
36254;BME280;22291;52.250;21.228;2023-03-22T04:27:24;100154.77;;;-0.27;91.23
36254;BME280;22291;52.250;21.228;2023-03-22T04:29:50;100154.80;;;-0.24;91.38
36254;BME280;22291;52.250;21.228;2023-03-22T04:32:20;100157.45;;;-0.24;91.60
36254;BME280;22291;52.250;21.228;2023-03-22T04:34:52;100161.73;;;-0.23;91.67
36254;BME280;22291;52.250;21.228;2023-03-22T04:37:19;100163.36;;;-0.22;91.66
36254;BME280;22291;52.250;21.228;2023-03-22T04:39:48;100158.84;;;-0.22;91.82
36254;BME280;22291;52.250;21.228;2023-03-22T04:42:15;100160.70;;;-0.22;91.92
36254;BME280;22291;52.250;21.228;2023-03-22T04:44:42;100160.17;;;-0.22;92.04
36254;BME280;22291;52.250;21.228;2023-03-22T04:47:09;100162.59;;;-0.20;92.04
36254;BME280;22291;52.250;21.228;2023-03-22T04:49:36;100167.38;;;-0.20;92.27
36254;BME280;22291;52.250;21.228;2023-03-22T04:52:02;100170.59;;;-0.17;92.30
36254;BME280;22291;52.250;21.228;2023-03-22T04:54:28;100160.26;;;-0.16;92.42
36254;BME280;22291;52.250;21.228;2023-03-22T04:56:54;100162.44;;;-0.13;92.57
36254;BME280;22291;52.250;21.228;2023-03-22T04:59:21;100162.70;;;-0.12;92.61
36254;BME280;22291;52.250;21.228;2023-03-22T05:01:49;100171.53;;;-0.09;92.73
36254;BME280;22291;52.250;21.228;2023-03-22T05:04:18;100165.98;;;-0.08;93.08
36254;BME280;22291;52.250;21.228;2023-03-22T05:06:47;100167.07;;;-0.06;93.04
36254;BME280;22291;52.250;21.228;2023-03-22T05:09:13;100165.27;;;-0.03;92.91
36254;BME280;22291;52.250;21.228;2023-03-22T05:11:41;100161.54;;;-0.02;93.03
36254;BME280;22291;52.250;21.228;2023-03-22T05:14:07;100163.19;;;0.02;93.09
36254;BME280;22291;52.250;21.228;2023-03-22T05:16:37;100182.66;;;0.05;93.12
36254;BME280;22291;52.250;21.228;2023-03-22T05:19:08;100175.23;;;0.07;93.46
36254;BME280;22291;52.250;21.228;2023-03-22T05:21:42;100177.47;;;0.12;93.76
36254;BME280;22291;52.250;21.228;2023-03-22T05:24:10;100174.59;;;0.16;93.85
36254;BME280;22291;52.250;21.228;2023-03-22T05:26:37;100171.45;;;0.20;93.91
36254;BME280;22291;52.250;21.228;2023-03-22T05:29:11;100175.23;;;0.24;93.91
36254;BME280;22291;52.250;21.228;2023-03-22T05:31:39;100177.97;;;0.29;93.89
36254;BME280;22291;52.250;21.228;2023-03-22T05:34:05;100181.53;;;0.34;94.10
36254;BME280;22291;52.250;21.228;2023-03-22T05:36:33;100184.77;;;0.39;94.51
36254;BME280;22291;52.250;21.228;2023-03-22T05:39:03;100182.16;;;0.42;94.44
36254;BME280;22291;52.250;21.228;2023-03-22T05:41:31;100180.91;;;0.47;94.59
36254;BME280;22291;52.250;21.228;2023-03-22T05:44:01;100182.60;;;0.53;94.76
36254;BME280;22291;52.250;21.228;2023-03-22T05:46:27;100183.48;;;0.61;95.07
36254;BME280;22291;52.250;21.228;2023-03-22T05:48:53;100187.59;;;0.69;95.32
36254;BME280;22291;52.250;21.228;2023-03-22T05:51:21;100172.54;;;0.77;95.68
36254;BME280;22291;52.250;21.228;2023-03-22T05:53:51;100178.23;;;0.86;95.82
36254;BME280;22291;52.250;21.228;2023-03-22T05:56:19;100179.65;;;0.93;95.83
36254;BME280;22291;52.250;21.228;2023-03-22T05:58:50;100177.62;;;1.01;96.79
36254;BME280;22291;52.250;21.228;2023-03-22T06:01:18;100179.33;;;1.09;96.71
36254;BME280;22291;52.250;21.228;2023-03-22T06:03:46;100177.62;;;1.23;98.29
36254;BME280;22291;52.250;21.228;2023-03-22T06:06:15;100180.95;;;1.38;97.58
36254;BME280;22291;52.250;21.228;2023-03-22T06:08:44;100183.77;;;1.51;98.07
36254;BME280;22291;52.250;21.228;2023-03-22T06:11:11;100185.27;;;1.68;98.08
36254;BME280;22291;52.250;21.228;2023-03-22T06:13:38;100195.57;;;1.87;98.24
36254;BME280;22291;52.250;21.228;2023-03-22T06:16:05;100198.91;;;2.02;98.13
36254;BME280;22291;52.250;21.228;2023-03-22T06:18:32;100200.58;;;2.11;97.56
36254;BME280;22291;52.250;21.228;2023-03-22T06:20:59;100200.95;;;2.24;97.64
36254;BME280;22291;52.250;21.228;2023-03-22T06:23:26;100200.22;;;2.32;96.84
36254;BME280;22291;52.250;21.228;2023-03-22T06:25:53;100190.91;;;2.39;96.66
36254;BME280;22291;52.250;21.228;2023-03-22T06:28:19;100190.95;;;2.45;95.96
36254;BME280;22291;52.250;21.228;2023-03-22T06:30:45;100190.22;;;2.54;96.18
36254;BME280;22291;52.250;21.228;2023-03-22T06:33:12;100188.17;;;2.69;96.24
36254;BME280;22291;52.250;21.228;2023-03-22T06:35:38;100191.45;;;2.89;96.71
36254;BME280;22291;52.250;21.228;2023-03-22T06:38:05;100193.15;;;3.06;96.68
36254;BME280;22291;52.250;21.228;2023-03-22T06:40:31;100186.28;;;3.25;96.72
36254;BME280;22291;52.250;21.228;2023-03-22T06:42:59;100198.08;;;3.47;96.70
36254;BME280;22291;52.250;21.228;2023-03-22T06:45:25;100185.83;;;3.62;95.92
36254;BME280;22291;52.250;21.228;2023-03-22T06:47:51;100179.16;;;3.87;96.89
36254;BME280;22291;52.250;21.228;2023-03-22T06:50:18;100188.29;;;4.12;96.60
36254;BME280;22291;52.250;21.228;2023-03-22T06:52:44;100176.75;;;4.35;96.30
36254;BME280;22291;52.250;21.228;2023-03-22T06:55:10;100180.98;;;4.59;96.54
36254;BME280;22291;52.250;21.228;2023-03-22T06:57:36;100180.37;;;4.85;95.85
36254;BME280;22291;52.250;21.228;2023-03-22T07:00:04;100181.36;;;5.10;95.05
36254;BME280;22291;52.250;21.228;2023-03-22T07:02:32;100182.03;;;5.36;94.80
36254;BME280;22291;52.250;21.228;2023-03-22T07:04:58;100186.38;;;5.74;95.86
36254;BME280;22291;52.250;21.228;2023-03-22T07:07:25;100178.96;;;6.00;94.21
36254;BME280;22291;52.250;21.228;2023-03-22T07:09:52;100173.92;;;6.25;93.73
36254;BME280;22291;52.250;21.228;2023-03-22T07:12:18;100176.77;;;6.63;95.18
36254;BME280;22291;52.250;21.228;2023-03-22T07:14:44;100172.94;;;6.94;92.76
36254;BME280;22291;52.250;21.228;2023-03-22T07:17:12;100158.97;;;7.13;90.35
36254;BME280;22291;52.250;21.228;2023-03-22T07:19:39;100162.16;;;7.37;91.77
36254;BME280;22291;52.250;21.228;2023-03-22T07:22:08;100161.19;;;7.68;91.34
36254;BME280;22291;52.250;21.228;2023-03-22T07:24:35;100162.45;;;7.90;88.58
36254;BME280;22291;52.250;21.228;2023-03-22T07:27:02;100154.38;;;8.06;88.22
36254;BME280;22291;52.250;21.228;2023-03-22T07:29:29;100154.23;;;8.30;89.12
36254;BME280;22291;52.250;21.228;2023-03-22T07:31:56;100153.76;;;8.58;87.38
36254;BME280;22291;52.250;21.228;2023-03-22T07:34:23;100151.06;;;8.72;86.15
36254;BME280;22291;52.250;21.228;2023-03-22T07:36:50;100146.70;;;9.02;87.02
36254;BME280;22291;52.250;21.228;2023-03-22T07:39:17;100149.11;;;9.28;84.04
36254;BME280;22291;52.250;21.228;2023-03-22T07:41:43;100153.98;;;9.40;82.10
36254;BME280;22291;52.250;21.228;2023-03-22T07:44:10;100136.96;;;9.40;80.79
36254;BME280;22291;52.250;21.228;2023-03-22T07:46:36;100141.83;;;9.40;80.22
36254;BME280;22291;52.250;21.228;2023-03-22T07:49:02;100134.48;;;9.43;80.55
36254;BME280;22291;52.250;21.228;2023-03-22T07:51:29;100138.78;;;9.56;79.25
36254;BME280;22291;52.250;21.228;2023-03-22T07:53:55;100136.82;;;9.81;80.81
36254;BME280;22291;52.250;21.228;2023-03-22T07:56:23;100136.53;;;10.25;80.64
36254;BME280;22291;52.250;21.228;2023-03-22T08:14:22;100122.14;;;14.26;71.26
36254;BME280;22291;52.250;21.228;2023-03-22T08:16:50;100118.05;;;15.18;69.04
36254;BME280;22291;52.250;21.228;2023-03-22T08:19:18;100113.66;;;15.42;64.38
36254;BME280;22291;52.250;21.228;2023-03-22T08:21:44;100115.75;;;15.61;63.24
36254;BME280;22291;52.250;21.228;2023-03-22T08:26:53;100124.30;;;15.87;62.78
36254;BME280;22291;52.250;21.228;2023-03-22T08:29:20;100115.45;;;15.56;60.69
36254;BME280;22291;52.250;21.228;2023-03-22T08:31:50;100111.37;;;15.16;60.36
36254;BME280;22291;52.250;21.228;2023-03-22T08:34:17;100106.73;;;14.98;60.96
36254;BME280;22291;52.250;21.228;2023-03-22T08:36:46;100112.31;;;14.95;60.31
36254;BME280;22291;52.250;21.228;2023-03-22T08:39:14;100110.50;;;14.62;57.76
36254;BME280;22291;52.250;21.228;2023-03-22T08:41:40;100115.22;;;14.22;57.63
36254;BME280;22291;52.250;21.228;2023-03-22T08:44:06;100107.78;;;13.92;59.81
36254;BME280;22291;52.250;21.228;2023-03-22T08:46:34;100110.43;;;14.07;60.47
36254;BME280;22291;52.250;21.228;2023-03-22T08:49:00;100110.59;;;14.41;60.41
36254;BME280;22291;52.250;21.228;2023-03-22T08:51:29;100119.48;;;14.63;61.16
36254;BME280;22291;52.250;21.228;2023-03-22T08:53:57;100109.58;;;14.83;59.25
36254;BME280;22291;52.250;21.228;2023-03-22T08:56:23;100108.69;;;14.72;58.49
36254;BME280;22291;52.250;21.228;2023-03-22T08:58:53;100111.99;;;14.60;57.35
36254;BME280;22291;52.250;21.228;2023-03-22T09:01:19;100108.53;;;14.26;57.08
36254;BME280;22291;52.250;21.228;2023-03-22T09:03:46;100104.91;;;13.82;56.85
36254;BME280;22291;52.250;21.228;2023-03-22T09:06:12;100099.57;;;13.46;58.17
36254;BME280;22291;52.250;21.228;2023-03-22T09:08:40;100093.67;;;13.23;59.27
36254;BME280;22291;52.250;21.228;2023-03-22T09:11:10;100096.30;;;13.11;59.33
36254;BME280;22291;52.250;21.228;2023-03-22T09:13:37;100082.84;;;12.93;59.70
36254;BME280;22291;52.250;21.228;2023-03-22T09:16:07;100082.20;;;12.81;61.16
36254;BME280;22291;52.250;21.228;2023-03-22T09:18:36;100087.09;;;12.67;61.02
36254;BME280;22291;52.250;21.228;2023-03-22T09:21:06;100077.52;;;12.46;60.72
36254;BME280;22291;52.250;21.228;2023-03-22T09:23:37;100079.21;;;12.29;60.59
36254;BME280;22291;52.250;21.228;2023-03-22T09:26:07;100082.92;;;12.16;61.73
36254;BME280;22291;52.250;21.228;2023-03-22T09:28:34;100081.63;;;11.99;61.16
36254;BME280;22291;52.250;21.228;2023-03-22T09:31:09;100083.70;;;11.84;61.67
36254;BME280;22291;52.250;21.228;2023-03-22T09:33:37;100093.52;;;11.74;62.39
36254;BME280;22291;52.250;21.228;2023-03-22T09:36:09;100077.77;;;11.58;61.97
36254;BME280;22291;52.250;21.228;2023-03-22T09:38:38;100072.59;;;11.42;62.76
36254;BME280;22291;52.250;21.228;2023-03-22T09:41:13;100068.38;;;11.30;62.37
36254;BME280;22291;52.250;21.228;2023-03-22T09:43:45;100077.14;;;11.18;63.31
36254;BME280;22291;52.250;21.228;2023-03-22T09:46:21;100072.29;;;11.09;64.25
36254;BME280;22291;52.250;21.228;2023-03-22T09:48:47;100079.74;;;11.03;64.42
36254;BME280;22291;52.250;21.228;2023-03-22T09:53:57;100062.92;;;10.77;64.84
36254;BME280;22291;52.250;21.228;2023-03-22T09:56:26;100061.80;;;10.70;65.29
36254;BME280;22291;52.250;21.228;2023-03-22T10:02:00;100048.48;;;10.62;66.13
36254;BME280;22291;52.250;21.228;2023-03-22T10:04:34;100057.42;;;10.62;66.42
36254;BME280;22291;52.250;21.228;2023-03-22T10:10:09;100046.34;;;10.61;66.63
36254;BME280;22291;52.250;21.228;2023-03-22T10:15:40;100024.00;;;10.67;66.66
36254;BME280;22291;52.250;21.228;2023-03-22T10:18:25;100032.05;;;10.70;66.63
36254;BME280;22291;52.250;21.228;2023-03-22T10:21:14;100018.59;;;10.76;66.28
36254;BME280;22291;52.250;21.228;2023-03-22T10:23:53;100023.22;;;10.75;66.74
36254;BME280;22291;52.250;21.228;2023-03-22T10:26:35;100014.63;;;10.73;66.75
36254;BME280;22291;52.250;21.228;2023-03-22T10:29:03;100033.16;;;10.77;66.88
36254;BME280;22291;52.250;21.228;2023-03-22T10:31:32;100035.23;;;10.80;67.13
36254;BME280;22291;52.250;21.228;2023-03-22T10:36:47;100022.34;;;10.86;67.42
36254;BME280;22291;52.250;21.228;2023-03-22T10:39:29;100025.77;;;10.98;67.86
36254;BME280;22291;52.250;21.228;2023-03-22T10:41:59;100024.27;;;11.03;67.70
36254;BME280;22291;52.250;21.228;2023-03-22T10:44:30;100034.93;;;11.08;67.62
36254;BME280;22291;52.250;21.228;2023-03-22T10:47:01;100024.61;;;11.10;67.64
36254;BME280;22291;52.250;21.228;2023-03-22T10:49:38;100028.72;;;11.16;67.83
36254;BME280;22291;52.250;21.228;2023-03-22T10:55:23;100027.53;;;11.20;67.32
36254;BME280;22291;52.250;21.228;2023-03-22T10:58:18;100026.11;;;11.23;67.47
36254;BME280;22291;52.250;21.228;2023-03-22T11:00:54;100032.78;;;11.25;67.20
36254;BME280;22291;52.250;21.228;2023-03-22T11:03:30;100024.89;;;11.35;67.43
36254;BME280;22291;52.250;21.228;2023-03-22T11:06:05;100021.77;;;11.39;67.33
36254;BME280;22291;52.250;21.228;2023-03-22T11:08:50;100023.13;;;11.39;67.04
36254;BME280;22291;52.250;21.228;2023-03-22T11:11:20;100023.79;;;11.36;66.23
36254;BME280;22291;52.250;21.228;2023-03-22T11:16:54;100010.73;;;11.29;66.46
36254;BME280;22291;52.250;21.228;2023-03-22T11:20:12;100001.42;;;11.24;66.82
36254;BME280;22291;52.250;21.228;2023-03-22T11:22:32;100007.05;;;11.34;66.88
36254;BME280;22291;52.250;21.228;2023-03-22T11:25:08;100009.69;;;11.36;66.83
36254;BME280;22291;52.250;21.228;2023-03-22T11:27:33;100005.70;;;11.43;67.36
36254;BME280;22291;52.250;21.228;2023-03-22T11:30:19;100009.28;;;11.49;67.47
36254;BME280;22291;52.250;21.228;2023-03-22T11:32:48;100003.77;;;11.52;66.72
36254;BME280;22291;52.250;21.228;2023-03-22T11:35:19;99998.02;;;11.53;66.81
36254;BME280;22291;52.250;21.228;2023-03-22T11:37:52;99985.05;;;11.53;67.16
36254;BME280;22291;52.250;21.228;2023-03-22T11:40:28;99993.64;;;11.55;66.85
36254;BME280;22291;52.250;21.228;2023-03-22T11:43:22;99988.61;;;11.51;66.82
36254;BME280;22291;52.250;21.228;2023-03-22T11:45:49;99993.17;;;11.53;66.59
36254;BME280;22291;52.250;21.228;2023-03-22T11:48:20;99988.72;;;11.48;66.22
36254;BME280;22291;52.250;21.228;2023-03-22T11:50:54;99982.36;;;11.44;66.88
36254;BME280;22291;52.250;21.228;2023-03-22T11:53:24;99986.47;;;11.50;67.28
36254;BME280;22291;52.250;21.228;2023-03-22T11:55:54;99983.27;;;11.57;67.41
36254;BME280;22291;52.250;21.228;2023-03-22T12:04:04;99967.38;;;11.70;66.82
36254;BME280;22291;52.250;21.228;2023-03-22T12:06:39;99971.88;;;11.81;67.14
36254;BME280;22291;52.250;21.228;2023-03-22T12:09:34;99957.92;;;11.94;66.82
36254;BME280;22291;52.250;21.228;2023-03-22T12:12:01;99950.31;;;12.02;67.00
36254;BME280;22291;52.250;21.228;2023-03-22T12:14:48;99952.92;;;12.20;67.44
36254;BME280;22291;52.250;21.228;2023-03-22T12:17:37;99950.80;;;12.40;66.66
36254;BME280;22291;52.250;21.228;2023-03-22T12:22:58;99943.50;;;12.47;64.96
36254;BME280;22291;52.250;21.228;2023-03-22T12:25:32;99942.35;;;12.48;65.56
36254;BME280;22291;52.250;21.228;2023-03-22T12:28:05;99937.22;;;12.55;65.38
36254;BME280;22291;52.250;21.228;2023-03-22T12:30:40;99932.96;;;12.66;65.47
36254;BME280;22291;52.250;21.228;2023-03-22T12:33:13;99937.78;;;12.76;64.43
36254;BME280;22291;52.250;21.228;2023-03-22T12:35:42;99936.55;;;12.79;64.83
36254;BME280;22291;52.250;21.228;2023-03-22T12:38:30;99938.03;;;12.83;64.40
36254;BME280;22291;52.250;21.228;2023-03-22T12:40:57;99929.64;;;12.82;64.58
36254;BME280;22291;52.250;21.228;2023-03-22T12:43:47;99925.24;;;12.83;62.57
36254;BME280;22291;52.250;21.228;2023-03-22T12:46:25;99918.98;;;12.77;64.19
36254;BME280;22291;52.250;21.228;2023-03-22T12:52:02;99921.58;;;12.73;64.16
36254;BME280;22291;52.250;21.228;2023-03-22T12:54:28;99918.86;;;12.73;64.34
36254;BME280;22291;52.250;21.228;2023-03-22T12:56:55;99916.77;;;12.79;64.52
36254;BME280;22291;52.250;21.228;2023-03-22T12:59:27;99913.97;;;12.87;64.27
36254;BME280;22291;52.250;21.228;2023-03-22T13:09:47;99916.69;;;13.27;62.92
36254;BME280;22291;52.250;21.228;2023-03-22T13:12:24;99911.13;;;13.30;63.39
36254;BME280;22291;52.250;21.228;2023-03-22T13:25:37;99895.27;;;13.19;62.92
36254;BME280;22291;52.250;21.228;2023-03-22T13:30:53;99897.59;;;13.02;63.22
36254;BME280;22291;52.250;21.228;2023-03-22T13:33:31;99888.42;;;12.95;63.10
36254;BME280;22291;52.250;21.228;2023-03-22T13:36:23;99888.64;;;12.89;62.77
36254;BME280;22291;52.250;21.228;2023-03-22T13:39:00;99887.91;;;12.80;63.10
36254;BME280;22291;52.250;21.228;2023-03-22T13:41:34;99877.83;;;12.75;63.47
36254;BME280;22291;52.250;21.228;2023-03-22T13:46:59;99878.11;;;12.88;63.30
36254;BME280;22291;52.250;21.228;2023-03-22T13:49:41;99881.52;;;12.91;63.38
36254;BME280;22291;52.250;21.228;2023-03-22T13:52:29;99879.83;;;12.93;63.65
36254;BME280;22291;52.250;21.228;2023-03-22T13:55:12;99872.59;;;12.97;63.01
36254;BME280;22291;52.250;21.228;2023-03-22T13:57:48;99879.71;;;12.95;62.92
36254;BME280;22291;52.250;21.228;2023-03-22T14:00:31;99873.59;;;12.92;62.85
36254;BME280;22291;52.250;21.228;2023-03-22T14:03:13;99866.68;;;12.88;62.09
36254;BME280;22291;52.250;21.228;2023-03-22T14:05:40;99868.12;;;12.80;62.25
36254;BME280;22291;52.250;21.228;2023-03-22T14:08:16;99864.59;;;12.73;62.58
36254;BME280;22291;52.250;21.228;2023-03-22T14:13:41;99855.05;;;12.61;63.03
36254;BME280;22291;52.250;21.228;2023-03-22T14:16:14;99860.94;;;12.63;63.15
36254;BME280;22291;52.250;21.228;2023-03-22T14:18:46;99856.74;;;12.59;63.08
36254;BME280;22291;52.250;21.228;2023-03-22T14:21:20;99860.36;;;12.57;62.61
36254;BME280;22291;52.250;21.228;2023-03-22T14:23:53;99860.36;;;12.57;63.08
36254;BME280;22291;52.250;21.228;2023-03-22T14:26:24;99851.10;;;12.58;63.23
36254;BME280;22291;52.250;21.228;2023-03-22T14:29:13;99861.95;;;12.58;63.04
36254;BME280;22291;52.250;21.228;2023-03-22T14:31:44;99863.97;;;12.55;63.17
36254;BME280;22291;52.250;21.228;2023-03-22T14:34:17;99856.70;;;12.53;63.32
36254;BME280;22291;52.250;21.228;2023-03-22T14:36:48;99861.92;;;12.52;63.35
36254;BME280;22291;52.250;21.228;2023-03-22T14:39:23;99853.98;;;12.47;63.66
36254;BME280;22291;52.250;21.228;2023-03-22T14:42:06;99850.48;;;12.46;63.95
36254;BME280;22291;52.250;21.228;2023-03-22T14:44:42;99852.62;;;12.47;63.88
36254;BME280;22291;52.250;21.228;2023-03-22T14:47:29;99851.36;;;12.44;63.94
36254;BME280;22291;52.250;21.228;2023-03-22T14:50:04;99841.98;;;12.42;64.18
36254;BME280;22291;52.250;21.228;2023-03-22T14:52:35;99837.25;;;12.45;64.56
36254;BME280;22291;52.250;21.228;2023-03-22T14:55:12;99836.56;;;12.48;64.49
36254;BME280;22291;52.250;21.228;2023-03-22T14:57:56;99836.23;;;12.49;64.50
36254;BME280;22291;52.250;21.228;2023-03-22T15:00:27;99838.62;;;12.51;64.51